createdAt,value
2023-02-04T00:00:20.817Z,-23708.16
2023-02-04T00:02:49.661Z,-23707.90
2023-02-04T00:08:13.037Z,-23708.09
2023-02-04T00:10:41.695Z,-23707.33
2023-02-04T00:13:10.031Z,-23707.33
2023-02-04T00:15:39.012Z,-23707.02
2023-02-04T00:18:08.707Z,-23706.61
2023-02-04T00:20:36.961Z,-23706.29
2023-02-04T00:23:05.491Z,-23706.07
2023-02-04T00:25:34.127Z,-23706.07
2023-02-04T00:28:02.454Z,-23705.91
2023-02-04T00:30:33.774Z,-23705.82
2023-02-04T00:33:02.179Z,-23705.79
2023-02-04T00:35:31.010Z,-23705.66
2023-02-04T00:37:59.272Z,-23705.79
2023-02-04T00:40:28.947Z,-23706.19
2023-02-04T00:42:57.864Z,-23706.19
2023-02-04T00:45:26.148Z,-23706.04
2023-02-04T00:47:54.668Z,-23706.07
2023-02-04T00:50:25.723Z,-23705.94
2023-02-04T00:52:54.072Z,-23705.94
2023-02-04T00:55:22.249Z,-23706.00
2023-02-04T00:57:51.694Z,-23705.85
2023-02-04T01:00:20.212Z,-23705.75
2023-02-04T01:02:48.943Z,-23705.47
2023-02-04T01:05:17.143Z,-23705.19
2023-02-04T01:07:48.300Z,-23705.66
2023-02-04T01:10:18.120Z,-23706.22
2023-02-04T01:12:46.778Z,-23706.64
2023-02-04T01:15:15.499Z,-23706.54
2023-02-04T01:17:43.757Z,-23706.51
2023-02-04T01:20:12.311Z,-23706.29
2023-02-04T01:22:40.509Z,-23705.88
2023-02-04T01:25:09.059Z,-23705.38
2023-02-04T01:27:44.723Z,-23705.56
2023-02-04T01:30:13.821Z,-23705.88
2023-02-04T01:32:44.381Z,-23706.26
2023-02-04T01:35:12.590Z,-23706.26
2023-02-04T01:37:40.835Z,-23705.85
2023-02-04T01:40:10.159Z,-23705.56
2023-02-04T01:42:38.784Z,-23705.44
2023-02-04T01:45:07.099Z,-23705.38
2023-02-04T01:47:35.954Z,-23705.63
2023-02-04T01:50:04.415Z,-23705.56
2023-02-04T01:52:38.752Z,-23705.41
2023-02-04T01:55:13.354Z,-23705.38
2023-02-04T01:57:42.296Z,-23705.09
2023-02-04T02:00:32.031Z,-23705.34
2023-02-04T02:03:00.606Z,-23705.63
2023-02-04T02:05:35.891Z,-23705.25
2023-02-04T02:08:04.910Z,-23704.96
2023-02-04T02:10:33.820Z,-23705.09
2023-02-04T02:13:02.098Z,-23705.38
2023-02-04T02:15:32.096Z,-23705.59
2023-02-04T02:18:01.575Z,-23705.82
2023-02-04T02:20:30.924Z,-23706.10
2023-02-04T02:23:14.712Z,-23706.83
2023-02-04T02:25:44.013Z,-23706.73
2023-02-04T02:28:14.326Z,-23706.22
2023-02-04T02:30:43.011Z,-23705.50
2023-02-04T02:33:17.754Z,-23704.43
2023-02-04T02:35:48.396Z,-23703.67
2023-02-04T02:38:17.275Z,-23702.50
2023-02-04T02:40:45.649Z,-23701.75
2023-02-04T02:43:15.916Z,-23701.62
2023-02-04T02:45:44.180Z,-23701.53
2023-02-04T02:48:12.481Z,-23701.49
2023-02-04T02:50:40.792Z,-23701.68
2023-02-04T02:53:17.385Z,-23702.19
2023-02-04T02:55:45.944Z,-23702.82
2023-02-04T02:58:32.890Z,-23702.85
2023-02-04T03:01:01.421Z,-23702.56
2023-02-04T03:03:31.620Z,-23701.96
2023-02-04T03:06:17.194Z,-23700.93
2023-02-04T03:08:45.401Z,-23700.07
2023-02-04T03:11:15.483Z,-23700.17
2023-02-04T03:13:44.437Z,-23699.72
2023-02-04T03:16:12.692Z,-23699.44
2023-02-04T03:18:41.086Z,-23699.44
2023-02-04T03:21:09.613Z,-23699.66
2023-02-04T03:23:38.407Z,-23699.47
2023-02-04T03:26:09.660Z,-23699.72
2023-02-04T03:28:40.250Z,-23700.17
2023-02-04T03:31:09.387Z,-23699.91
2023-02-04T03:33:37.921Z,-23699.88
2023-02-04T03:36:06.534Z,-23700.45
2023-02-04T03:38:35.398Z,-23701.21
2023-02-04T03:41:03.657Z,-23701.84
2023-02-04T03:43:33.949Z,-23701.65
2023-02-04T03:46:02.415Z,-23700.45
2023-02-04T03:48:30.751Z,-23699.19
2023-02-04T03:50:58.931Z,-23698.74
2023-02-04T03:53:27.121Z,-23699.44
2023-02-04T03:55:55.278Z,-23699.44
2023-02-04T03:58:23.540Z,-23699.18
2023-02-04T04:00:51.683Z,-23699.31
2023-02-04T04:03:19.996Z,-23698.78
2023-02-04T04:05:48.258Z,-23698.27
2023-02-04T04:08:16.600Z,-23698.52
2023-02-04T04:10:45.023Z,-23698.90
2023-02-04T04:13:16.302Z,-23699.85
2023-02-04T04:15:45.340Z,-23700.58
2023-02-04T04:18:13.516Z,-23701.37
2023-02-04T04:20:41.820Z,-23701.90
2023-02-04T04:23:09.914Z,-23702.00
2023-02-04T04:25:38.287Z,-23701.59
2023-02-04T04:28:06.904Z,-23701.39
2023-02-04T04:30:35.814Z,-23700.77
2023-02-04T04:33:04.520Z,-23700.36
2023-02-04T04:35:33.164Z,-23699.47
2023-02-04T04:38:02.526Z,-23698.65
2023-02-04T04:40:31.513Z,-23698.11
2023-02-04T04:43:00.030Z,-23697.61
2023-02-04T04:45:28.132Z,-23697.07
2023-02-04T04:47:56.512Z,-23696.57
2023-02-04T04:50:24.631Z,-23696.12
2023-02-04T04:52:53.108Z,-23695.74
2023-02-04T04:55:21.357Z,-23695.37
2023-02-04T04:57:49.587Z,-23695.33
2023-02-04T05:00:19.133Z,-23695.55
2023-02-04T05:02:47.628Z,-23695.24
2023-02-04T05:05:15.988Z,-23694.54
2023-02-04T05:07:44.612Z,-23694.10
2023-02-04T05:10:13.322Z,-23693.72
2023-02-04T05:12:41.830Z,-23693.97
2023-02-04T05:15:12.813Z,-23694.45
2023-02-04T05:17:41.109Z,-23694.70
2023-02-04T05:20:09.928Z,-23695.18
2023-02-04T05:22:38.404Z,-23695.59
2023-02-04T05:25:06.928Z,-23695.55
2023-02-04T05:27:36.340Z,-23695.71
2023-02-04T05:30:04.714Z,-23696.00
2023-02-04T05:32:33.278Z,-23695.59
2023-02-04T05:35:01.361Z,-23695.71
2023-02-04T05:37:29.714Z,-23695.21
2023-02-04T05:39:57.907Z,-23694.64
2023-02-04T05:42:26.387Z,-23694.45
2023-02-04T05:44:54.617Z,-23694.38
2023-02-04T05:47:23.212Z,-23694.13
2023-02-04T05:49:51.348Z,-23693.72
2023-02-04T05:52:19.381Z,-23693.28
2023-02-04T05:54:48.042Z,-23693.03
2023-02-04T05:57:16.118Z,-23693.09
2023-02-04T05:59:44.373Z,-23692.36
2023-02-04T06:02:12.657Z,-23691.61
2023-02-04T06:04:40.894Z,-23691.29
2023-02-04T06:07:08.993Z,-23690.79
2023-02-04T06:09:37.123Z,-23690.44
2023-02-04T06:12:05.724Z,-23690.91
2023-02-04T06:14:34.514Z,-23691.89
2023-02-04T06:17:04.257Z,-23692.24
2023-02-04T06:19:33.435Z,-23692.71
2023-02-04T06:22:01.541Z,-23692.90
2023-02-04T06:24:33.674Z,-23692.93
2023-02-04T06:27:02.139Z,-23693.12
2023-02-04T06:29:30.401Z,-23693.28
2023-02-04T06:31:58.734Z,-23693.38
2023-02-04T06:34:27.327Z,-23693.54
2023-02-04T06:36:55.402Z,-23693.00
2023-02-04T06:39:23.671Z,-23692.93
2023-02-04T06:41:51.777Z,-23692.08
2023-02-04T06:44:20.126Z,-23690.91
2023-02-04T06:46:48.624Z,-23690.09
2023-02-04T06:49:16.963Z,-23690.22
2023-02-04T06:51:45.266Z,-23690.63
2023-02-04T06:54:13.494Z,-23691.70
2023-02-04T06:56:43.680Z,-23692.37
2023-02-04T06:59:12.135Z,-23691.48
2023-02-04T07:01:40.496Z,-23690.41
2023-02-04T07:04:08.723Z,-23690.06
2023-02-04T07:06:36.997Z,-23689.87
2023-02-04T07:09:05.265Z,-23690.28
2023-02-04T07:11:33.529Z,-23690.00
2023-02-04T07:14:02.021Z,-23690.28
2023-02-04T07:16:30.540Z,-23690.22
2023-02-04T07:18:58.926Z,-23690.50
2023-02-04T07:21:27.575Z,-23690.91
2023-02-04T07:23:55.826Z,-23691.13
2023-02-04T07:26:24.062Z,-23691.82
2023-02-04T07:28:52.576Z,-23692.93
2023-02-04T07:31:20.767Z,-23693.54
2023-02-04T07:33:49.072Z,-23691.89
2023-02-04T07:36:17.403Z,-23691.45
2023-02-04T07:38:45.649Z,-23691.80
2023-02-04T07:41:13.866Z,-23691.26
2023-02-04T07:43:42.780Z,-23691.64
2023-02-04T07:46:10.916Z,-23692.27
2023-02-04T07:48:39.261Z,-23692.81
2023-02-04T07:51:07.354Z,-23693.63
2023-02-04T07:53:35.950Z,-23694.45
2023-02-04T07:56:04.383Z,-23694.51
2023-02-04T07:58:32.930Z,-23694.07
2023-02-04T08:01:03.268Z,-23693.50
2023-02-04T08:03:32.944Z,-23693.69
2023-02-04T08:06:02.006Z,-23694.45
2023-02-04T08:08:30.413Z,-23694.38
2023-02-04T08:11:00.030Z,-23693.37
2023-02-04T08:13:28.218Z,-23692.27
2023-02-04T08:15:56.582Z,-23691.80
2023-02-04T08:18:27.763Z,-23691.38
2023-02-04T08:20:56.265Z,-23690.41
2023-02-04T08:23:25.689Z,-23689.39
2023-02-04T08:25:54.076Z,-23689.05
2023-02-04T08:28:22.798Z,-23688.54
2023-02-04T08:30:51.146Z,-23687.47
2023-02-04T08:33:20.030Z,-23687.06
2023-02-04T08:35:49.662Z,-23687.38
2023-02-04T08:38:18.154Z,-23687.41
2023-02-04T08:40:46.749Z,-23687.03
2023-02-04T08:43:15.096Z,-23686.59
2023-02-04T08:45:43.265Z,-23686.55
2023-02-04T08:48:12.767Z,-23686.84
2023-02-04T08:50:41.557Z,-23687.03
2023-02-04T08:53:10.556Z,-23686.58
2023-02-04T08:55:38.895Z,-23685.83
2023-02-04T08:58:07.432Z,-23685.48
2023-02-04T09:00:36.077Z,-23685.42
2023-02-04T09:03:04.360Z,-23685.29
2023-02-04T09:05:33.074Z,-23684.85
2023-02-04T09:08:02.466Z,-23684.75
2023-02-04T09:10:31.244Z,-23685.07
2023-02-04T09:12:59.722Z,-23685.51
2023-02-04T09:15:27.930Z,-23684.88
2023-02-04T09:18:04.742Z,-23684.88
2023-02-04T09:20:33.595Z,-23684.34
2023-02-04T09:23:02.932Z,-23684.21
2023-02-04T09:25:31.533Z,-23684.85
2023-02-04T09:27:59.743Z,-23685.67
2023-02-04T09:30:27.942Z,-23685.89
2023-02-04T09:32:56.090Z,-23685.45
2023-02-04T09:35:25.183Z,-23684.47
2023-02-04T09:37:54.156Z,-23683.65
2023-02-04T09:40:22.591Z,-23682.79
2023-02-04T09:42:52.311Z,-23682.98
2023-02-04T09:45:30.982Z,-23683.59
2023-02-04T09:47:59.592Z,-23682.19
2023-02-04T09:50:28.636Z,-23680.74
2023-02-04T09:52:59.014Z,-23680.11
2023-02-04T09:55:43.684Z,-23680.52
2023-02-04T09:58:17.906Z,-23680.74
2023-02-04T10:00:47.590Z,-23681.94
2023-02-04T10:03:17.982Z,-23682.07
2023-02-04T10:05:47.011Z,-23681.47
2023-02-04T10:08:19.196Z,-23680.52
2023-02-04T10:10:48.776Z,-23680.14
2023-02-04T10:13:22.567Z,-23679.60
2023-02-04T10:15:51.249Z,-23678.34
2023-02-04T10:18:27.061Z,-23677.64
2023-02-04T10:21:12.335Z,-23677.11
2023-02-04T10:23:42.392Z,-23677.17
2023-02-04T10:26:14.770Z,-23677.67
2023-02-04T10:28:43.481Z,-23677.20
2023-02-04T10:31:28.527Z,-23675.94
2023-02-04T10:34:32.458Z,-23675.43
2023-02-04T10:37:11.403Z,-23675.91
2023-02-04T10:39:43.239Z,-23675.97
2023-02-04T10:42:30.588Z,-23675.94
2023-02-04T10:45:02.075Z,-23676.22
2023-02-04T10:47:31.731Z,-23676.16
2023-02-04T10:50:04.810Z,-23676.28
2023-02-04T10:52:45.045Z,-23676.76
2023-02-04T10:55:15.578Z,-23677.61
2023-02-04T10:57:45.886Z,-23677.96
2023-02-04T11:00:26.542Z,-23678.08
2023-02-04T11:03:04.398Z,-23678.18
2023-02-04T11:05:34.790Z,-23678.18
2023-02-04T11:08:04.166Z,-23678.24
2023-02-04T11:10:34.381Z,-23678.08
2023-02-04T11:13:06.992Z,-23678.59
2023-02-04T11:16:06.950Z,-23679.60
2023-02-04T11:18:51.634Z,-23680.17
2023-02-04T11:21:26.534Z,-23681.31
2023-02-04T11:24:13.916Z,-23682.19
2023-02-04T11:27:07.267Z,-23683.62
2023-02-04T11:29:38.457Z,-23683.74
2023-02-04T11:32:28.342Z,-23683.71
2023-02-04T11:35:06.889Z,-23683.96
2023-02-04T11:37:38.045Z,-23684.25
2023-02-04T11:40:23.310Z,-23683.93
2023-02-04T11:43:00.386Z,-23683.46
2023-02-04T11:45:34.631Z,-23683.04
2023-02-04T11:48:04.920Z,-23683.04
2023-02-04T11:50:34.656Z,-23682.54
2023-02-04T11:53:04.334Z,-23682.19
2023-02-04T11:55:35.644Z,-23682.83
2023-02-04T11:58:03.830Z,-23683.71
2023-02-04T12:00:33.180Z,-23684.91
2023-02-04T12:03:06.394Z,-23685.70
2023-02-04T12:05:45.660Z,-23686.68
2023-02-04T12:08:32.630Z,-23688.20
2023-02-04T12:11:04.209Z,-23689.30
2023-02-04T12:13:33.810Z,-23690.94
2023-02-04T12:16:06.720Z,-23692.93
2023-02-04T12:18:35.343Z,-23694.73
2023-02-04T12:21:04.568Z,-23696.09
2023-02-04T12:23:32.999Z,-23696.88
2023-02-04T12:26:01.296Z,-23698.18
2023-02-04T12:28:29.922Z,-23699.95
2023-02-04T12:30:58.317Z,-23701.18
2023-02-04T12:33:26.813Z,-23702.47
2023-02-04T12:35:55.084Z,-23703.48
2023-02-04T12:38:23.428Z,-23704.43
2023-02-04T12:40:52.130Z,-23704.17
2023-02-04T12:43:20.491Z,-23703.83
2023-02-04T12:45:50.067Z,-23703.61
2023-02-04T12:48:18.498Z,-23703.61
2023-02-04T12:50:48.980Z,-23703.48
2023-02-04T12:53:17.339Z,-23703.01
2023-02-04T12:55:45.878Z,-23702.38
2023-02-04T12:58:14.040Z,-23701.49
2023-02-04T13:00:42.606Z,-23700.64
2023-02-04T13:03:11.461Z,-23700.70
2023-02-04T13:05:40.216Z,-23699.97
2023-02-04T13:08:08.566Z,-23699.50
2023-02-04T13:10:37.131Z,-23698.75
2023-02-04T13:13:06.901Z,-23697.42
2023-02-04T13:15:36.913Z,-23696.63
2023-02-04T13:18:05.270Z,-23695.46
2023-02-04T13:20:34.222Z,-23694.83
2023-02-04T13:23:02.437Z,-23694.23
2023-02-04T13:25:31.140Z,-23693.75
2023-02-04T13:27:59.926Z,-23693.25
2023-02-04T13:30:34.093Z,-23692.14
2023-02-04T13:33:03.536Z,-23690.34
2023-02-04T13:35:33.097Z,-23689.46
2023-02-04T13:38:01.595Z,-23688.42
2023-02-04T13:40:30.016Z,-23687.16
2023-02-04T13:42:58.453Z,-23686.81
2023-02-04T13:45:26.735Z,-23686.43
2023-02-04T13:47:54.918Z,-23685.67
2023-02-04T13:50:23.241Z,-23685.32
2023-02-04T13:52:51.563Z,-23684.59
2023-02-04T13:55:19.723Z,-23684.15
2023-02-04T13:57:47.942Z,-23684.03
2023-02-04T14:00:16.353Z,-23684.09
2023-02-04T14:02:44.709Z,-23684.15
2023-02-04T14:05:13.470Z,-23683.78
2023-02-04T14:07:42.224Z,-23683.04
2023-02-04T14:10:11.093Z,-23681.88
2023-02-04T14:12:42.827Z,-23681.05
2023-02-04T14:15:13.146Z,-23680.64
2023-02-04T14:17:41.601Z,-23680.49
2023-02-04T14:20:10.142Z,-23680.08
2023-02-04T14:22:38.705Z,-23679.92
2023-02-04T14:25:07.436Z,-23679.22
2023-02-04T14:27:38.546Z,-23678.72
2023-02-04T14:30:07.603Z,-23678.18
2023-02-04T14:32:36.172Z,-23677.23
2023-02-04T14:35:05.680Z,-23676.70
2023-02-04T14:37:35.012Z,-23676.22
2023-02-04T14:40:03.362Z,-23675.75
2023-02-04T14:42:31.788Z,-23674.52
2023-02-04T14:45:05.466Z,-23673.66
2023-02-04T14:47:34.653Z,-23672.14
2023-02-04T14:50:03.794Z,-23670.15
2023-02-04T14:52:32.164Z,-23669.14
2023-02-04T14:55:00.452Z,-23668.00
2023-02-04T14:57:28.777Z,-23667.43
2023-02-04T14:59:57.647Z,-23666.27
2023-02-04T15:02:26.015Z,-23665.45
2023-02-04T15:04:54.370Z,-23665.00
2023-02-04T15:07:23.532Z,-23664.94
2023-02-04T15:09:51.928Z,-23664.31
2023-02-04T15:12:20.106Z,-23663.71
2023-02-04T15:14:48.320Z,-23663.20
2023-02-04T15:17:16.894Z,-23663.26
2023-02-04T15:19:45.245Z,-23663.45
2023-02-04T15:22:14.257Z,-23663.49
2023-02-04T15:24:43.054Z,-23663.29
2023-02-04T15:27:12.101Z,-23663.26
2023-02-04T15:29:40.621Z,-23662.95
2023-02-04T15:32:09.966Z,-23662.76
2023-02-04T15:34:40.863Z,-23662.79
2023-02-04T15:37:11.071Z,-23662.88
2023-02-04T15:39:40.391Z,-23662.85
2023-02-04T15:42:08.611Z,-23662.88
2023-02-04T15:44:37.160Z,-23663.04
2023-02-04T15:47:06.511Z,-23662.66
2023-02-04T15:49:35.263Z,-23662.41
2023-02-04T15:52:04.782Z,-23662.57
2023-02-04T15:54:35.714Z,-23662.57
2023-02-04T15:57:04.121Z,-23662.54
2023-02-04T15:59:32.666Z,-23662.47
2023-02-04T16:02:00.843Z,-23662.79
2023-02-04T16:04:29.326Z,-23662.91
2023-02-04T16:06:59.286Z,-23663.13
2023-02-04T16:09:28.398Z,-23663.52
2023-02-04T16:11:57.424Z,-23663.55
2023-02-04T16:14:26.190Z,-23663.71
2023-02-04T16:16:54.502Z,-23663.80
2023-02-04T16:19:22.634Z,-23663.61
2023-02-04T16:21:51.288Z,-23663.55
2023-02-04T16:24:19.671Z,-23663.71
2023-02-04T16:26:48.396Z,-23663.55
2023-02-04T16:29:17.527Z,-23663.58
2023-02-04T16:31:45.959Z,-23663.55
2023-02-04T16:34:14.250Z,-23663.10
2023-02-04T16:36:42.574Z,-23662.95
2023-02-04T16:39:11.040Z,-23663.23
2023-02-04T16:41:39.863Z,-23663.20
2023-02-04T16:44:08.210Z,-23663.04
2023-02-04T16:46:36.573Z,-23663.04
2023-02-04T16:49:05.175Z,-23663.20
2023-02-04T16:51:33.297Z,-23663.13
2023-02-04T16:54:01.788Z,-23662.92
2023-02-04T16:56:35.815Z,-23662.66
2023-02-04T16:59:04.593Z,-23662.29
2023-02-04T17:01:35.674Z,-23662.00
2023-02-04T17:04:04.399Z,-23661.49
2023-02-04T17:06:32.947Z,-23661.27
2023-02-04T17:09:01.761Z,-23660.83
2023-02-04T17:11:31.760Z,-23660.67
2023-02-04T17:14:07.460Z,-23660.39
2023-02-04T17:16:37.218Z,-23660.32
2023-02-04T17:19:05.691Z,-23660.01
2023-02-04T17:21:34.892Z,-23659.60
2023-02-04T17:24:07.042Z,-23658.43
2023-02-04T17:26:41.183Z,-23658.20
2023-02-04T17:29:14.272Z,-23657.86
2023-02-04T17:31:45.152Z,-23657.61
2023-02-04T17:34:13.372Z,-23657.48
2023-02-04T17:36:41.630Z,-23657.51
2023-02-04T17:39:10.157Z,-23657.20
2023-02-04T17:41:38.534Z,-23656.56
2023-02-04T17:44:06.765Z,-23656.31
2023-02-04T17:46:35.493Z,-23656.02
2023-02-04T17:49:04.238Z,-23655.43
2023-02-04T17:51:33.016Z,-23654.60
2023-02-04T17:54:01.178Z,-23654.00
2023-02-04T17:56:29.637Z,-23653.56
2023-02-04T17:58:57.730Z,-23653.02
2023-02-04T18:01:26.495Z,-23652.89
2023-02-04T18:03:55.038Z,-23652.70
2023-02-04T18:06:27.194Z,-23652.39
2023-02-04T18:09:01.722Z,-23652.45
2023-02-04T18:11:35.631Z,-23652.17
2023-02-04T18:14:17.764Z,-23651.88
2023-02-04T18:16:46.421Z,-23651.60
2023-02-04T18:19:14.599Z,-23651.28
2023-02-04T18:21:43.139Z,-23650.27
2023-02-04T18:24:11.364Z,-23649.92
2023-02-04T18:26:46.699Z,-23649.42
2023-02-04T18:29:26.755Z,-23648.72
2023-02-04T18:32:00.169Z,-23648.24
2023-02-04T18:34:38.300Z,-23647.74
2023-02-04T18:37:31.862Z,-23647.36
2023-02-04T18:40:09.480Z,-23646.88
2023-02-04T18:42:40.098Z,-23645.84
2023-02-04T18:45:27.992Z,-23644.96
2023-02-04T18:48:00.696Z,-23644.29
2023-02-04T18:50:34.442Z,-23643.38
2023-02-04T18:53:12.649Z,-23642.78
2023-02-04T18:55:41.602Z,-23642.52
2023-02-04T18:58:28.841Z,-23641.95
2023-02-04T19:01:07.985Z,-23641.32
2023-02-04T19:03:45.654Z,-23640.68
2023-02-04T19:06:29.374Z,-23640.18
2023-02-04T19:09:16.023Z,-23639.77
2023-02-04T19:11:46.454Z,-23639.10
2023-02-04T19:14:42.393Z,-23638.79
2023-02-04T19:17:17.013Z,-23637.93
2023-02-04T19:20:20.913Z,-23637.02
2023-02-04T19:22:54.087Z,-23636.35
2023-02-04T19:25:41.180Z,-23635.78
2023-02-04T19:28:28.277Z,-23634.29
2023-02-04T19:31:00.592Z,-23633.72
2023-02-04T19:33:40.114Z,-23633.50
2023-02-04T19:36:22.374Z,-23633.00
2023-02-04T19:38:52.983Z,-23632.27
2023-02-04T19:41:29.759Z,-23632.02
2023-02-04T19:44:21.305Z,-23631.92
2023-02-04T19:46:49.930Z,-23630.94
2023-02-04T19:49:24.765Z,-23629.49
2023-02-04T19:51:56.607Z,-23628.44
2023-02-04T19:54:40.003Z,-23627.46
2023-02-04T19:57:27.379Z,-23627.08
2023-02-04T19:59:56.448Z,-23626.86
2023-02-04T20:02:33.054Z,-23626.23
2023-02-04T20:05:01.653Z,-23625.79
2023-02-04T20:07:31.618Z,-23625.28
2023-02-04T20:10:06.811Z,-23624.80
2023-02-04T20:12:35.593Z,-23624.01
2023-02-04T20:15:18.301Z,-23623.54
2023-02-04T20:17:47.812Z,-23623.06
2023-02-04T20:20:23.151Z,-23623.03
2023-02-04T20:22:51.699Z,-23622.78
2023-02-04T20:25:19.948Z,-23622.18
2023-02-04T20:27:55.364Z,-23621.04
2023-02-04T20:30:30.088Z,-23619.99
2023-02-04T20:32:59.843Z,-23619.61
2023-02-04T20:35:34.074Z,-23619.33
2023-02-04T20:38:10.573Z,-23618.85
2023-02-04T20:40:39.198Z,-23618.35
2023-02-04T20:43:21.424Z,-23617.59
2023-02-04T20:45:56.572Z,-23617.43
2023-02-04T20:48:35.209Z,-23617.02
2023-02-04T20:51:04.886Z,-23616.38
2023-02-04T20:53:59.200Z,-23615.53
2023-02-04T20:56:35.691Z,-23614.39
2023-02-04T20:59:35.640Z,-23613.63
2023-02-04T21:02:04.761Z,-23612.68
2023-02-04T21:04:38.196Z,-23611.98
2023-02-04T21:07:14.195Z,-23611.60
2023-02-04T21:09:45.996Z,-23611.06
2023-02-04T21:12:15.145Z,-23610.24
2023-02-04T21:14:43.601Z,-23609.70
2023-02-04T21:17:12.033Z,-23609.36
2023-02-04T21:19:40.265Z,-23609.29
2023-02-04T21:22:08.360Z,-23609.29
2023-02-04T21:24:36.903Z,-23608.95
2023-02-04T21:27:05.412Z,-23608.60
2023-02-04T21:29:33.925Z,-23608.03
2023-02-04T21:32:02.474Z,-23607.74
2023-02-04T21:34:31.094Z,-23607.71
2023-02-04T21:36:59.339Z,-23607.26
2023-02-04T21:39:27.608Z,-23606.88
2023-02-04T21:42:10.226Z,-23606.57
2023-02-04T21:44:38.854Z,-23606.29
2023-02-04T21:47:07.040Z,-23605.71
2023-02-04T21:49:36.864Z,-23605.21
2023-02-04T21:52:06.716Z,-23604.54
2023-02-04T21:54:35.208Z,-23604.23
2023-02-04T21:57:04.533Z,-23603.97
2023-02-04T21:59:32.730Z,-23603.43
2023-02-04T22:02:01.056Z,-23602.74
2023-02-04T22:04:29.507Z,-23602.29
2023-02-04T22:06:57.882Z,-23601.59
2023-02-04T22:09:26.415Z,-23601.25
2023-02-04T22:11:54.819Z,-23600.84
2023-02-04T22:14:25.711Z,-23600.78
2023-02-04T22:16:54.691Z,-23601.09
2023-02-04T22:19:23.058Z,-23601.40
2023-02-04T22:21:51.653Z,-23601.28
2023-02-04T22:24:20.201Z,-23601.06
2023-02-04T22:26:51.795Z,-23601.47
2023-02-04T22:29:23.558Z,-23602.01
2023-02-04T22:31:52.116Z,-23602.42
2023-02-04T22:34:20.789Z,-23602.39
2023-02-04T22:36:49.074Z,-23602.42
2023-02-04T22:39:17.490Z,-23602.86
2023-02-04T22:41:45.705Z,-23602.96
2023-02-04T22:44:13.877Z,-23603.15
2023-02-04T22:46:42.694Z,-23603.40
2023-02-04T22:49:11.165Z,-23602.99
2023-02-04T22:51:39.970Z,-23602.67
2023-02-04T22:54:08.328Z,-23602.67
2023-02-04T22:56:37.747Z,-23602.99
2023-02-04T22:59:06.239Z,-23603.34
2023-02-04T23:01:34.421Z,-23603.31
2023-02-04T23:04:02.594Z,-23603.12
2023-02-04T23:06:31.438Z,-23603.08
2023-02-04T23:08:59.552Z,-23602.64
2023-02-04T23:11:28.344Z,-23602.45
2023-02-04T23:13:56.627Z,-23602.04
2023-02-04T23:16:24.763Z,-23601.56
2023-02-04T23:18:53.168Z,-23601.47
2023-02-04T23:21:23.070Z,-23601.34
2023-02-04T23:23:51.257Z,-23601.75
2023-02-04T23:26:19.401Z,-23601.53
2023-02-04T23:28:47.648Z,-23601.47
2023-02-04T23:31:15.901Z,-23601.59
2023-02-04T23:33:44.154Z,-23601.91
2023-02-04T23:36:12.595Z,-23602.48
2023-02-04T23:38:40.711Z,-23602.83
2023-02-04T23:41:08.915Z,-23603.05
2023-02-04T23:43:37.246Z,-23603.97
2023-02-04T23:46:05.612Z,-23604.04
2023-02-04T23:48:33.995Z,-23604.16
2023-02-04T23:51:02.405Z,-23604.57
2023-02-04T23:53:30.701Z,-23605.11
2023-02-04T23:55:58.947Z,-23605.62
2023-02-04T23:58:27.073Z,-23606.13
